Time;durP1;ratioP1;P1;durP2;ratioP2;P2;SDS_P1;SDS_P2;PMS_P1;PMS_P2;Temp;Humidity;BMP_temperature;BMP_pressure;BME280_temperature;BME280_humidity;BME280_pressure;Samples;Min_cycle;Max_cycle;Signal;HPM_P1;HPM_P2
2023/09/09 00:00:05;;;;;;;11.43;8.45;;;16.40;99.90;;;;;;5014077;28;20295;-81
2023/09/09 00:02:32;;;;;;;11.63;8.20;;;15.90;99.90;;;;;;5011472;28;20228;-81
2023/09/09 00:04:59;;;;;;;12.43;8.13;;;15.60;99.90;;;;;;5016706;28;20653;-80
2023/09/09 00:07:26;;;;;;;10.82;8.07;;;15.60;99.90;;;;;;5015208;28;20238;-81
2023/09/09 00:09:54;;;;;;;9.98;6.85;;;15.70;99.90;;;;;;5016495;28;20283;-81
2023/09/09 00:12:21;;;;;;;12.93;8.85;;;15.80;99.90;;;;;;5014055;28;20232;-81
2023/09/09 00:14:47;;;;;;;10.88;8.05;;;15.60;99.90;;;;;;5010622;28;20220;-82
2023/09/09 00:17:21;;;;;;;10.23;8.23;;;15.50;99.90;;;;;;5013113;28;20292;-81
2023/09/09 00:19:49;;;;;;;10.32;8.35;;;15.30;99.90;;;;;;5015234;28;20210;-81
2023/09/09 00:22:17;;;;;;;10.60;8.02;;;15.20;99.90;;;;;;5015604;28;20652;-82
2023/09/09 00:24:44;;;;;;;11.70;8.13;;;15.20;99.90;;;;;;5015112;28;20255;-81
2023/09/09 00:27:12;;;;;;;9.73;7.55;;;15.20;99.90;;;;;;5013001;28;20201;-82
2023/09/09 00:29:38;;;;;;;11.65;8.35;;;15.00;99.90;;;;;;5018616;28;20210;-81
2023/09/09 00:32:05;;;;;;;16.15;8.50;;;15.10;99.90;;;;;;5013440;28;20208;-81
2023/09/09 00:34:34;;;;;;;12.43;8.20;;;15.20;99.90;;;;;;5016715;28;20712;-81
2023/09/09 00:37:03;;;;;;;10.27;8.48;;;15.00;99.90;;;;;;5015588;28;20212;-81
2023/09/09 00:39:30;;;;;;;11.88;7.85;;;15.00;99.90;;;;;;5017510;28;20207;-81
2023/09/09 00:41:56;;;;;;;12.50;9.00;;;15.20;99.90;;;;;;5013177;28;20204;-81
2023/09/09 00:44:25;;;;;;;13.05;8.90;;;15.20;99.90;;;;;;5017610;28;20217;-81
2023/09/09 00:46:52;;;;;;;12.15;8.98;;;15.10;99.90;;;;;;5018560;28;20201;-82
2023/09/09 00:49:20;;;;;;;11.73;8.50;;;15.30;99.90;;;;;;5016587;28;20299;-82
2023/09/09 00:51:47;;;;;;;11.68;8.20;;;15.40;99.90;;;;;;5015724;28;20208;-82
2023/09/09 00:54:14;;;;;;;11.15;8.63;;;15.30;99.90;;;;;;5014758;28;20613;-81
2023/09/09 00:56:42;;;;;;;10.60;8.00;;;15.30;99.90;;;;;;5015212;28;20207;-82
2023/09/09 00:59:10;;;;;;;11.15;8.68;;;15.40;99.90;;;;;;5014201;28;20212;-81
2023/09/09 01:01:38;;;;;;;11.95;8.45;;;15.30;99.90;;;;;;5015213;28;20208;-82
2023/09/09 01:04:06;;;;;;;11.63;8.02;;;15.40;99.90;;;;;;5020104;28;20208;-82
2023/09/09 01:06:33;;;;;;;10.45;8.13;;;15.40;99.90;;;;;;5014021;28;20208;-81
2023/09/09 01:09:04;;;;;;;12.30;7.95;;;15.30;99.90;;;;;;5010884;28;20200;-81
2023/09/09 01:11:31;;;;;;;13.00;9.15;;;15.40;99.90;;;;;;5017617;28;20198;-81
2023/09/09 01:13:58;;;;;;;11.02;8.40;;;15.40;99.90;;;;;;5022067;28;20204;-81
2023/09/09 01:16:25;;;;;;;12.23;8.25;;;15.00;99.90;;;;;;5021726;28;20603;-81
2023/09/09 01:18:54;;;;;;;12.48;7.82;;;14.80;99.90;;;;;;5021838;28;20664;-81
2023/09/09 01:21:25;;;;;;;9.95;8.05;;;14.80;99.90;;;;;;5023145;28;20526;-81
2023/09/09 01:23:53;;;;;;;11.07;7.15;;;14.80;99.90;;;;;;5022181;28;21183;-81
2023/09/09 01:26:20;;;;;;;12.07;8.07;;;15.00;99.90;;;;;;5022651;28;20224;-81
2023/09/09 01:28:47;;;;;;;10.18;8.50;;;15.10;99.90;;;;;;5022430;28;21683;-81
2023/09/09 01:31:13;;;;;;;12.52;8.65;;;15.20;99.90;;;;;;5018007;28;20204;-81
2023/09/09 01:33:40;;;;;;;11.32;9.20;;;15.10;99.90;;;;;;5021660;28;20234;-81
2023/09/09 01:36:07;;;;;;;14.05;10.57;;;15.10;99.90;;;;;;5022993;28;20575;-82
2023/09/09 01:38:35;;;;;;;16.95;10.68;;;15.10;99.90;;;;;;5016939;28;20197;-82
2023/09/09 01:41:03;;;;;;;14.20;9.73;;;15.10;99.90;;;;;;5019421;28;20204;-81
2023/09/09 01:43:30;;;;;;;15.35;9.48;;;15.10;99.90;;;;;;5023146;28;20200;-81
2023/09/09 01:45:57;;;;;;;12.32;8.45;;;15.20;99.90;;;;;;5020610;28;20242;-81
2023/09/09 01:48:25;;;;;;;13.02;8.15;;;15.20;99.90;;;;;;5021147;28;20204;-81
2023/09/09 01:50:52;;;;;;;11.70;8.05;;;15.00;99.90;;;;;;5021837;28;20291;-82
2023/09/09 01:53:19;;;;;;;8.55;7.35;;;14.90;99.90;;;;;;5020721;28;20200;-81
2023/09/09 01:55:46;;;;;;;11.88;8.57;;;14.90;99.90;;;;;;5020278;28;20220;-81
2023/09/09 01:58:15;;;;;;;13.07;8.52;;;14.80;99.90;;;;;;5019159;28;20216;-81
2023/09/09 02:00:42;;;;;;;13.20;9.50;;;14.60;99.90;;;;;;5024616;28;20212;-81
2023/09/09 02:03:09;;;;;;;12.27;9.40;;;14.70;99.90;;;;;;5015642;28;20216;-81
2023/09/09 02:05:36;;;;;;;12.52;8.93;;;14.40;99.90;;;;;;5023633;28;20219;-81
2023/09/09 02:08:03;;;;;;;12.30;9.35;;;14.30;99.90;;;;;;5019206;28;20218;-80
2023/09/09 02:10:30;;;;;;;14.15;9.43;;;14.00;99.90;;;;;;5022052;28;20204;-81
2023/09/09 02:12:57;;;;;;;13.48;9.77;;;14.10;99.90;;;;;;5020084;28;20215;-81
2023/09/09 02:15:26;;;;;;;12.55;9.88;;;14.10;99.90;;;;;;5013733;28;20223;-81
2023/09/09 02:17:53;;;;;;;12.65;9.18;;;14.30;99.90;;;;;;5020680;28;21114;-81
2023/09/09 02:20:19;;;;;;;14.73;10.43;;;14.20;99.90;;;;;;5023507;28;20230;-81
2023/09/09 02:22:46;;;;;;;14.38;9.55;;;14.20;99.90;;;;;;5019785;28;20209;-80
2023/09/09 02:25:13;;;;;;;13.20;9.40;;;14.10;99.90;;;;;;5019091;28;20220;-81
2023/09/09 02:27:40;;;;;;;11.60;9.00;;;14.00;99.90;;;;;;5019956;28;20200;-81
2023/09/09 02:30:08;;;;;;;13.73;9.35;;;14.00;99.90;;;;;;5022850;28;20212;-81
2023/09/09 02:32:36;;;;;;;13.65;9.88;;;14.10;99.90;;;;;;5014213;28;20262;-80
2023/09/09 02:35:03;;;;;;;13.88;9.50;;;14.10;99.90;;;;;;5018310;28;22086;-81
2023/09/09 02:37:30;;;;;;;11.95;8.88;;;14.00;99.90;;;;;;5016563;28;20262;-81
2023/09/09 02:39:57;;;;;;;13.27;9.43;;;14.00;99.90;;;;;;5018861;28;22524;-81
2023/09/09 02:42:24;;;;;;;13.68;10.25;;;14.10;99.90;;;;;;5015336;28;20200;-81
2023/09/09 02:44:51;;;;;;;15.60;9.90;;;14.10;99.90;;;;;;5019924;28;20223;-82
2023/09/09 02:47:19;;;;;;;14.23;9.65;;;14.10;99.90;;;;;;5017064;28;20215;-81
2023/09/09 02:49:49;;;;;;;13.48;9.15;;;14.10;99.90;;;;;;5019052;28;20196;-81
2023/09/09 02:52:16;;;;;;;11.13;8.82;;;14.20;99.90;;;;;;5019145;28;20202;-81
2023/09/09 02:54:43;;;;;;;15.85;10.05;;;14.20;99.90;;;;;;5024033;28;20238;-81
2023/09/09 02:57:10;;;;;;;12.93;9.70;;;14.10;99.90;;;;;;5024123;28;20205;-81
2023/09/09 02:59:37;;;;;;;11.25;8.65;;;14.30;99.90;;;;;;5024845;28;20196;-81
2023/09/09 03:02:04;;;;;;;11.30;8.93;;;14.40;99.90;;;;;;5017972;28;20667;-81
2023/09/09 03:04:31;;;;;;;14.05;8.52;;;14.30;99.90;;;;;;5018741;28;20228;-81
2023/09/09 03:07:00;;;;;;;10.77;7.70;;;14.50;99.90;;;;;;5019809;28;20204;-81
2023/09/09 03:09:29;;;;;;;10.95;8.65;;;14.50;99.90;;;;;;5016937;28;20208;-81
2023/09/09 03:11:56;;;;;;;12.07;8.20;;;14.30;99.90;;;;;;5010269;28;20228;-81
2023/09/09 03:14:23;;;;;;;10.82;8.30;;;14.40;99.90;;;;;;5009530;28;20208;-81
2023/09/09 03:16:50;;;;;;;12.80;8.73;;;14.40;99.90;;;;;;5033296;28;20220;-81
2023/09/09 03:19:17;;;;;;;12.98;9.75;;;14.20;99.90;;;;;;5030820;28;20220;-81
2023/09/09 03:21:44;;;;;;;6.22;5.63;;;14.20;99.90;;;;;;5017036;28;20196;-81
2023/09/09 03:24:12;;;;;;;7.00;5.45;;;14.10;99.90;;;;;;5016684;28;20204;-81
2023/09/09 03:26:41;;;;;;;6.80;6.10;;;14.10;99.90;;;;;;5005405;28;20621;-81
2023/09/09 03:29:08;;;;;;;8.32;6.75;;;14.00;99.90;;;;;;5020860;28;20239;-81
2023/09/09 03:31:35;;;;;;;7.47;5.85;;;13.90;99.90;;;;;;5016850;28;20212;-81
2023/09/09 03:34:01;;;;;;;21.58;7.32;;;13.60;99.90;;;;;;5017582;28;20212;-81
2023/09/09 03:36:28;;;;;;;8.88;7.70;;;13.30;99.90;;;;;;5015634;28;20580;-81
2023/09/09 03:38:55;;;;;;;10.68;8.75;;;13.20;99.90;;;;;;5016863;28;20611;-81
2023/09/09 03:41:23;;;;;;;11.90;8.13;;;13.30;99.90;;;;;;5005872;28;20207;-81
2023/09/09 03:43:50;;;;;;;10.90;8.82;;;13.40;99.90;;;;;;5017171;28;20239;-81
2023/09/09 03:46:18;;;;;;;10.43;8.57;;;13.70;99.90;;;;;;5027866;28;20231;-81
2023/09/09 03:48:46;;;;;;;13.10;9.43;;;14.00;99.90;;;;;;5037337;28;20226;-81
2023/09/09 03:51:13;;;;;;;10.02;7.50;;;13.90;99.90;;;;;;5037004;28;20203;-80
2023/09/09 03:53:40;;;;;;;11.03;7.60;;;14.00;99.90;;;;;;5020874;28;20622;-80
2023/09/09 03:56:06;;;;;;;9.63;7.22;;;14.00;99.90;;;;;;5017306;28;20582;-81
2023/09/09 03:58:35;;;;;;;11.32;8.35;;;14.10;99.90;;;;;;5017206;28;20192;-81
2023/09/09 04:01:07;;;;;;;9.63;7.85;;;14.30;99.90;;;;;;5016471;28;20227;-81
2023/09/09 04:03:34;;;;;;;11.57;7.70;;;14.20;99.90;;;;;;5017333;28;20247;-80
2023/09/09 04:06:03;;;;;;;9.52;7.53;;;14.20;99.90;;;;;;5016382;28;20306;-81
2023/09/09 04:08:31;;;;;;;15.82;9.90;;;13.70;99.90;;;;;;5015733;28;20274;-81
2023/09/09 04:10:57;;;;;;;10.63;8.18;;;13.60;99.90;;;;;;5016154;28;20197;-81
2023/09/09 04:13:24;;;;;;;19.37;13.67;;;13.60;99.90;;;;;;5016679;28;20215;-81
2023/09/09 04:15:54;;;;;;;16.25;11.30;;;13.70;99.90;;;;;;5018495;28;20230;-81
2023/09/09 04:18:21;;;;;;;12.95;9.50;;;13.80;99.90;;;;;;5016828;28;20575;-81
2023/09/09 04:20:49;;;;;;;12.27;8.57;;;14.00;99.90;;;;;;5017236;28;20307;-81
2023/09/09 04:23:16;;;;;;;15.77;11.45;;;14.10;99.90;;;;;;5030547;28;20591;-81
2023/09/09 04:25:44;;;;;;;9.13;7.82;;;14.10;99.90;;;;;;5027329;28;20650;-82
2023/09/09 04:28:12;;;;;;;14.10;10.05;;;13.80;99.90;;;;;;5037783;28;20200;-81
2023/09/09 04:30:39;;;;;;;13.40;9.60;;;14.10;99.90;;;;;;5023394;28;20681;-81
2023/09/09 04:33:07;;;;;;;12.55;8.75;;;14.00;99.90;;;;;;5018335;28;20208;-81
2023/09/09 04:35:35;;;;;;;13.52;9.65;;;14.10;99.90;;;;;;5020633;28;20236;-83
2023/09/09 04:38:01;;;;;;;17.95;12.18;;;14.10;99.90;;;;;;5018080;28;20291;-82
2023/09/09 04:40:30;;;;;;;11.38;8.70;;;14.20;99.90;;;;;;5019810;28;20208;-81
2023/09/09 04:42:57;;;;;;;12.43;8.63;;;14.20;99.90;;;;;;5019412;28;20304;-81
2023/09/09 04:45:24;;;;;;;10.27;8.32;;;14.20;99.90;;;;;;5019998;28;20306;-81
2023/09/09 04:47:51;;;;;;;12.00;8.65;;;14.20;99.90;;;;;;5018557;28;20215;-82
2023/09/09 04:50:20;;;;;;;15.38;8.77;;;14.20;99.90;;;;;;5018885;28;20204;-82
2023/09/09 04:52:47;;;;;;;10.25;7.40;;;14.30;99.90;;;;;;5016979;28;20200;-80
2023/09/09 04:55:14;;;;;;;10.05;7.88;;;14.20;99.90;;;;;;5016934;28;20603;-82
2023/09/09 04:57:42;;;;;;;11.55;8.10;;;14.10;99.90;;;;;;5018507;28;20212;-81
2023/09/09 05:00:10;;;;;;;9.38;7.97;;;14.20;99.90;;;;;;5018709;28;20218;-81
2023/09/09 05:02:38;;;;;;;9.70;7.43;;;14.30;99.90;;;;;;5018690;28;20203;-83
2023/09/09 05:05:06;;;;;;;13.00;8.25;;;14.30;99.90;;;;;;5019327;28;20716;-82
2023/09/09 05:07:35;;;;;;;13.38;7.85;;;14.30;99.90;;;;;;5019786;28;20652;-82
2023/09/09 05:10:04;;;;;;;12.00;8.23;;;14.40;99.90;;;;;;5018399;28;20565;-81
2023/09/09 05:12:31;;;;;;;10.65;8.07;;;14.50;99.90;;;;;;5021409;28;20204;-82
2023/09/09 05:14:57;;;;;;;11.35;7.70;;;14.40;99.90;;;;;;5022342;28;20224;-82
2023/09/09 05:17:24;;;;;;;11.65;8.32;;;14.30;99.90;;;;;;5025350;28;20220;-82
2023/09/09 05:19:51;;;;;;;17.48;11.75;;;14.40;99.90;;;;;;5012745;28;20212;-82
2023/09/09 05:22:18;;;;;;;13.18;8.15;;;14.40;99.90;;;;;;5020242;28;20623;-82
2023/09/09 05:24:46;;;;;;;12.95;8.48;;;14.60;99.90;;;;;;5032555;28;20212;-83
2023/09/09 05:27:13;;;;;;;10.70;7.82;;;14.70;99.90;;;;;;5019031;28;20200;-83
2023/09/09 05:29:42;;;;;;;8.98;7.72;;;14.60;99.90;;;;;;5016201;28;20201;-82
2023/09/09 05:32:10;;;;;;;10.82;8.80;;;14.50;99.90;;;;;;5008285;28;20579;-81
2023/09/09 05:34:37;;;;;;;46.28;12.90;;;14.30;99.90;;;;;;5011925;28;20220;-81
2023/09/09 05:37:04;;;;;;;14.00;9.10;;;14.10;99.90;;;;;;5014417;28;20718;-80
2023/09/09 05:39:31;;;;;;;13.45;9.27;;;13.90;99.90;;;;;;5014665;28;20207;-83
2023/09/09 05:41:59;;;;;;;12.32;8.70;;;14.00;99.90;;;;;;5018679;28;20200;-83
2023/09/09 05:44:26;;;;;;;15.05;9.70;;;14.00;99.90;;;;;;5016111;28;20591;-82
2023/09/09 05:46:53;;;;;;;12.68;9.90;;;14.20;99.90;;;;;;5016336;28;20207;-82
2023/09/09 05:49:21;;;;;;;13.30;9.10;;;14.20;99.90;;;;;;5015966;28;20211;-82
2023/09/09 05:51:48;;;;;;;12.77;9.57;;;14.50;99.90;;;;;;5016079;28;20204;-82
2023/09/09 05:54:14;;;;;;;13.48;9.15;;;14.60;99.90;;;;;;5016452;28;20630;-82
2023/09/09 05:56:41;;;;;;;10.95;8.82;;;14.60;99.90;;;;;;5015670;28;20315;-83
2023/09/09 05:59:10;;;;;;;13.68;8.85;;;14.70;99.90;;;;;;5016115;28;20196;-83
2023/09/09 06:01:37;;;;;;;14.73;9.73;;;14.90;99.90;;;;;;5019146;28;20200;-83
2023/09/09 06:04:04;;;;;;;12.15;8.63;;;15.20;99.90;;;;;;5019407;28;20201;-82
2023/09/09 06:06:30;;;;;;;10.73;8.32;;;15.20;99.90;;;;;;5020168;28;20231;-82
2023/09/09 06:08:57;;;;;;;11.82;8.05;;;15.30;99.90;;;;;;5018313;28;20204;-82
2023/09/09 06:11:25;;;;;;;12.02;7.80;;;15.30;99.90;;;;;;5018814;28;20208;-82
2023/09/09 06:13:52;;;;;;;13.07;8.65;;;15.40;99.90;;;;;;5020205;28;20204;-83
2023/09/09 06:16:20;;;;;;;10.38;8.07;;;15.50;99.90;;;;;;5018982;28;20668;-82
2023/09/09 06:18:47;;;;;;;13.10;8.15;;;15.80;99.90;;;;;;5020931;28;20215;-83
2023/09/09 06:21:14;;;;;;;11.43;8.50;;;15.60;99.90;;;;;;5023380;28;20205;-83
2023/09/09 06:23:40;;;;;;;11.88;7.97;;;15.90;99.90;;;;;;5020839;28;20216;-83
2023/09/09 06:26:07;;;;;;;11.35;8.50;;;15.90;99.90;;;;;;5024209;28;20224;-84
2023/09/09 06:28:35;;;;;;;12.23;8.52;;;15.90;99.90;;;;;;5020187;28;20192;-83
2023/09/09 06:31:02;;;;;;;11.73;8.18;;;16.00;99.90;;;;;;5013237;28;20196;-83
2023/09/09 06:33:30;;;;;;;11.98;8.65;;;16.30;99.90;;;;;;5017257;28;20772;-83
2023/09/09 06:35:57;;;;;;;11.98;8.13;;;16.40;99.90;;;;;;5017177;28;20251;-84
2023/09/09 06:38:23;;;;;;;11.90;8.60;;;16.50;99.90;;;;;;5022275;28;20771;-83
2023/09/09 06:40:50;;;;;;;12.13;9.10;;;16.50;99.90;;;;;;5017199;28;20297;-82
2023/09/09 06:43:20;;;;;;;11.93;8.43;;;16.40;99.90;;;;;;5020650;28;20216;-82
2023/09/09 06:45:47;;;;;;;10.43;8.40;;;16.60;99.90;;;;;;5017035;28;20221;-83
2023/09/09 06:48:16;;;;;;;12.93;8.88;;;16.60;99.90;;;;;;5020933;28;20204;-83
2023/09/09 06:50:46;;;;;;;12.20;9.05;;;16.70;99.90;;;;;;5013075;28;20232;-83
2023/09/09 06:53:13;;;;;;;12.10;9.15;;;16.80;99.90;;;;;;5024155;28;20203;-83
2023/09/09 06:55:41;;;;;;;12.00;8.48;;;17.00;99.90;;;;;;5017883;28;20255;-83
2023/09/09 06:58:08;;;;;;;14.75;9.57;;;17.00;99.90;;;;;;5020421;28;20219;-83
2023/09/09 07:00:34;;;;;;;14.13;9.32;;;17.20;99.90;;;;;;5016818;28;20208;-84
2023/09/09 07:03:01;;;;;;;12.50;9.25;;;17.30;99.90;;;;;;5017251;28;20687;-83
2023/09/09 07:05:28;;;;;;;12.30;8.85;;;17.50;99.90;;;;;;5019702;28;20242;-83
2023/09/09 07:07:56;;;;;;;13.18;9.27;;;17.40;99.90;;;;;;5017592;28;20193;-82
2023/09/09 07:10:23;;;;;;;12.57;9.02;;;17.50;99.90;;;;;;5016367;28;20213;-83
2023/09/09 07:12:50;;;;;;;13.63;10.10;;;17.60;99.90;;;;;;5020165;28;20202;-82
2023/09/09 07:15:17;;;;;;;14.25;9.65;;;17.70;99.90;;;;;;5018024;28;20715;-83
2023/09/09 07:17:46;;;;;;;14.93;9.85;;;17.90;99.90;;;;;;5022244;28;20224;-83
2023/09/09 07:20:12;;;;;;;12.95;9.30;;;17.90;99.90;;;;;;5015764;28;20239;-83
2023/09/09 07:22:39;;;;;;;13.30;9.02;;;18.10;99.90;;;;;;5008429;28;20208;-83
2023/09/09 07:25:09;;;;;;;11.43;9.30;;;18.20;99.90;;;;;;5013958;28;20230;-83
2023/09/09 07:27:35;;;;;;;13.43;8.90;;;18.30;99.90;;;;;;5019762;28;20288;-83
2023/09/09 07:30:04;;;;;;;14.82;9.15;;;18.30;99.90;;;;;;5030797;28;20199;-85
2023/09/09 07:32:31;;;;;;;12.18;8.23;;;18.40;99.90;;;;;;5020514;28;20216;-82
2023/09/09 07:34:58;;;;;;;13.23;9.23;;;18.70;99.90;;;;;;5018405;28;20266;-82
2023/09/09 07:37:25;;;;;;;12.05;8.75;;;18.70;99.90;;;;;;5021371;28;20230;-83
2023/09/09 07:39:52;;;;;;;10.60;8.25;;;18.70;99.90;;;;;;5015701;28;20219;-83
2023/09/09 07:42:20;;;;;;;12.38;8.75;;;18.80;99.90;;;;;;5014487;28;20208;-82
2023/09/09 07:44:47;;;;;;;11.05;8.63;;;19.00;99.90;;;;;;5014294;28;20231;-82
2023/09/09 07:47:13;;;;;;;13.70;8.48;;;19.10;99.90;;;;;;5013388;28;20210;-82
2023/09/09 07:49:40;;;;;;;11.35;8.50;;;19.10;99.90;;;;;;5013557;28;20207;-82
2023/09/09 07:52:07;;;;;;;14.57;12.18;;;19.40;99.90;;;;;;5023003;28;20215;-82
2023/09/09 07:54:34;;;;;;;11.40;8.60;;;19.60;99.90;;;;;;5011603;28;20229;-83
2023/09/09 07:57:01;;;;;;;15.60;8.55;;;19.70;99.90;;;;;;5015030;28;20220;-80
2023/09/09 07:59:31;;;;;;;13.77;9.30;;;20.00;99.90;;;;;;5026799;28;20208;-82
2023/09/09 08:01:57;;;;;;;11.57;8.88;;;20.10;99.90;;;;;;4998636;28;20298;-84
2023/09/09 08:04:25;;;;;;;11.30;7.97;;;20.50;99.90;;;;;;4997909;28;20295;-84
2023/09/09 08:06:53;;;;;;;12.38;8.35;;;20.20;99.90;;;;;;4996201;28;20205;-83
2023/09/09 08:09:20;;;;;;;10.77;7.90;;;20.20;99.90;;;;;;5007362;28;20220;-84
2023/09/09 08:11:47;;;;;;;13.63;9.20;;;20.40;99.90;;;;;;5021756;28;20203;-83
2023/09/09 08:14:14;;;;;;;13.77;8.82;;;20.70;99.90;;;;;;5024414;28;20301;-83
2023/09/09 08:16:43;;;;;;;12.10;8.50;;;20.90;99.90;;;;;;5019285;28;20222;-83
2023/09/09 08:19:10;;;;;;;11.20;7.88;;;21.10;99.90;;;;;;5018514;28;20212;-83
2023/09/09 08:21:36;;;;;;;12.30;8.77;;;21.10;99.90;;;;;;5008963;28;20212;-82
2023/09/09 08:24:03;;;;;;;10.77;7.80;;;21.20;99.90;;;;;;5027586;28;20658;-83
2023/09/09 08:26:30;;;;;;;10.43;7.72;;;21.30;99.90;;;;;;5015900;28;20295;-82
2023/09/09 08:28:57;;;;;;;11.10;7.45;;;21.30;99.90;;;;;;5014322;28;20641;-82
2023/09/09 08:31:24;;;;;;;8.68;6.90;;;21.40;99.90;;;;;;4998065;28;20197;-83
2023/09/09 08:33:52;;;;;;;10.95;7.28;;;21.50;99.90;;;;;;5007529;28;20196;-82
2023/09/09 08:36:19;;;;;;;9.55;7.32;;;21.70;99.90;;;;;;5007606;28;20613;-82
2023/09/09 08:38:46;;;;;;;9.10;7.50;;;21.80;99.90;;;;;;5014564;28;20315;-81
2023/09/09 08:41:17;;;;;;;12.45;8.38;;;21.90;99.90;;;;;;5015315;28;20204;-82
2023/09/09 08:43:57;;;;;;;10.50;7.60;;;22.10;99.90;;;;;;5015340;28;20197;-83
2023/09/09 08:46:23;;;;;;;9.45;7.22;;;22.40;99.90;;;;;;5015325;28;20238;-82
2023/09/09 08:48:53;;;;;;;9.88;6.78;;;22.80;99.90;;;;;;5014464;28;20204;-82
2023/09/09 08:51:25;;;;;;;9.52;7.20;;;22.70;99.90;;;;;;5008044;28;20210;-82
2023/09/09 08:53:56;;;;;;;8.18;6.97;;;22.80;99.90;;;;;;5013059;28;20207;-82
2023/09/09 08:56:23;;;;;;;8.35;6.75;;;22.90;99.90;;;;;;5014379;28;20306;-83
2023/09/09 08:58:50;;;;;;;9.65;6.40;;;23.00;99.90;;;;;;5015659;28;20216;-83
2023/09/09 09:01:18;;;;;;;7.45;6.13;;;23.20;99.90;;;;;;5033390;28;20286;-83
2023/09/09 09:03:46;;;;;;;10.27;6.13;;;23.30;99.90;;;;;;5012537;28;20288;-83
2023/09/09 09:06:15;;;;;;;7.25;5.30;;;23.50;99.90;;;;;;5012748;28;20224;-82
2023/09/09 09:08:42;;;;;;;7.82;6.22;;;23.80;99.90;;;;;;5014657;28;20287;-83
2023/09/09 09:11:10;;;;;;;6.47;5.80;;;23.90;99.90;;;;;;5015170;28;20208;-82
2023/09/09 09:13:37;;;;;;;8.18;6.10;;;24.10;99.90;;;;;;5015082;28;20234;-83
2023/09/09 09:16:04;;;;;;;8.95;5.78;;;24.30;99.90;;;;;;5015641;28;20248;-82
2023/09/09 09:18:31;;;;;;;7.43;5.15;;;24.80;99.90;;;;;;5006979;28;20230;-83
2023/09/09 09:21:06;;;;;;;8.15;5.72;;;25.60;99.90;;;;;;5008217;28;20193;-83
2023/09/09 09:23:41;;;;;;;5.97;5.20;;;26.00;99.90;;;;;;5011245;28;20192;-83
2023/09/09 09:26:23;;;;;;;7.35;5.47;;;26.60;99.90;;;;;;4995366;28;20254;-83
2023/09/09 09:28:51;;;;;;;7.55;4.80;;;27.00;99.90;;;;;;5006972;28;20207;-83
2023/09/09 09:31:20;;;;;;;5.18;4.47;;;27.30;99.90;;;;;;5014690;28;20553;-83
2023/09/09 09:33:47;;;;;;;7.35;4.97;;;27.30;99.90;;;;;;5015370;28;20610;-82
2023/09/09 09:36:17;;;;;;;5.53;4.55;;;27.60;99.90;;;;;;5019310;28;20232;-83
2023/09/09 09:38:45;;;;;;;5.00;4.50;;;27.70;99.90;;;;;;5018873;28;20219;-81
2023/09/09 09:41:12;;;;;;;7.32;4.80;;;28.20;99.90;;;;;;5019117;28;20238;-83
2023/09/09 09:43:39;;;;;;;6.53;5.03;;;28.60;99.90;;;;;;5019125;28;20204;-82
2023/09/09 09:46:16;;;;;;;5.05;4.30;;;28.70;99.90;;;;;;5019640;28;20228;-82
2023/09/09 09:48:43;;;;;;;5.28;4.07;;;28.50;99.90;;;;;;5020168;28;20206;-82
2023/09/09 09:51:10;;;;;;;5.97;4.38;;;28.70;99.90;;;;;;5024833;28;20231;-82
2023/09/09 09:53:39;;;;;;;5.00;4.50;;;29.00;99.90;;;;;;5021163;28;20287;-83
2023/09/09 09:56:07;;;;;;;4.60;4.20;;;29.50;99.90;;;;;;5020658;28;20283;-83
2023/09/09 09:58:38;;;;;;;5.07;4.50;;;29.20;99.90;;;;;;5024641;28;20220;-83
2023/09/09 10:01:06;;;;;;;6.55;4.80;;;29.30;99.90;;;;;;5012704;28;20200;-83
2023/09/09 10:03:42;;;;;;;4.97;4.47;;;29.50;99.90;;;;;;5020464;28;20216;-83
2023/09/09 10:06:11;;;;;;;6.38;4.65;;;29.80;99.90;;;;;;5023308;28;20220;-82
2023/09/09 10:08:46;;;;;;;5.47;4.50;;;29.70;99.90;;;;;;5020900;28;20200;-83
2023/09/09 10:11:18;;;;;;;6.50;4.60;;;29.50;99.90;;;;;;5019369;28;20684;-82
2023/09/09 10:13:54;;;;;;;5.70;4.30;;;29.90;99.90;;;;;;5003667;28;20288;-82
2023/09/09 10:16:22;;;;;;;6.10;4.90;;;29.50;99.90;;;;;;5018868;28;20231;-82
2023/09/09 10:18:51;;;;;;;5.70;4.10;;;30.10;80.00;;;;;;5015188;28;20278;-82
2023/09/09 10:21:20;;;;;;;5.70;4.32;;;29.80;1.00;;;;;;5013578;28;20247;-82
2023/09/09 10:23:49;;;;;;;5.35;3.97;;;30.00;1.00;;;;;;5018913;28;20556;-82
2023/09/09 10:26:18;;;;;;;5.63;4.07;;;29.90;1.00;;;;;;5017929;28;20212;-82
2023/09/09 10:28:47;;;;;;;4.93;4.43;;;30.00;1.00;;;;;;5017826;28;20203;-82
2023/09/09 10:31:15;;;;;;;6.43;3.95;;;30.20;1.00;;;;;;5017688;28;20668;-82
2023/09/09 10:33:45;;;;;;;6.15;4.30;;;30.20;1.00;;;;;;5018901;28;20214;-82
2023/09/09 10:36:13;;;;;;;7.65;4.45;;;30.60;1.00;;;;;;5010080;28;20266;-81
2023/09/09 10:38:40;;;;;;;4.93;4.53;;;30.30;1.00;;;;;;5018091;28;20216;-82
2023/09/09 10:41:11;;;;;;;7.72;4.60;;;30.30;1.00;;;;;;5018911;28;20208;-84
2023/09/09 10:43:39;;;;;;;5.18;4.63;;;30.70;1.00;;;;;;5024346;28;20607;-82
2023/09/09 10:46:09;;;;;;;9.45;4.50;;;30.90;1.00;;;;;;5018147;28;20220;-85
2023/09/09 10:48:36;;;;;;;4.55;3.97;;;30.90;1.00;;;;;;5010348;28;20201;-80
2023/09/09 10:51:06;;;;;;;6.63;4.57;;;30.80;1.00;;;;;;5018257;28;20202;-82
2023/09/09 10:53:34;;;;;;;4.38;3.97;;;31.20;1.00;;;;;;5018477;28;20206;-82
2023/09/09 10:56:22;;;;;;;5.53;4.63;;;31.00;1.00;;;;;;5010161;28;20224;-82
2023/09/09 10:58:51;;;;;;;5.68;4.90;;;30.80;1.00;;;;;;5017938;28;20220;-82
2023/09/09 11:01:23;;;;;;;4.70;4.30;;;31.10;1.00;;;;;;5013495;28;20537;-83
2023/09/09 11:03:52;;;;;;;8.68;4.47;;;31.00;1.00;;;;;;5015574;28;20652;-82
2023/09/09 11:06:24;;;;;;;5.38;4.20;;;31.00;1.00;;;;;;5004628;28;20229;-82
2023/09/09 11:08:54;;;;;;;5.10;4.32;;;31.20;1.00;;;;;;5016414;28;20204;-82
2023/09/09 11:11:26;;;;;;;5.28;4.20;;;31.50;1.00;;;;;;5017269;28;20184;-82
2023/09/09 11:14:01;;;;;;;5.65;4.00;;;30.60;1.00;;;;;;5017235;28;20619;-83
2023/09/09 11:16:31;;;;;;;5.03;4.25;;;31.00;1.00;;;;;;5017357;28;20219;-83
2023/09/09 11:19:00;;;;;;;4.72;4.15;;;31.30;1.00;;;;;;5009719;28;20229;-83
2023/09/09 11:21:28;;;;;;;4.45;4.03;;;31.60;1.00;;;;;;5013316;28;20205;-82
2023/09/09 11:23:56;;;;;;;4.95;4.10;;;31.40;1.00;;;;;;5012032;28;20210;-82
2023/09/09 11:26:24;;;;;;;6.05;4.50;;;31.60;1.00;;;;;;5015927;28;20311;-82
2023/09/09 11:28:51;;;;;;;4.95;4.25;;;31.90;1.00;;;;;;5015696;28;20204;-82
2023/09/09 11:31:19;;;;;;;6.90;3.78;;;31.80;1.00;;;;;;5016832;28;20637;-80
2023/09/09 11:33:46;;;;;;;4.60;4.20;;;31.70;1.00;;;;;;5016642;28;20204;-81
2023/09/09 11:36:16;;;;;;;4.30;3.90;;;31.40;1.00;;;;;;5016761;28;20761;-80
2023/09/09 11:38:43;;;;;;;4.75;3.90;;;31.60;1.00;;;;;;5016833;28;20644;-81
2023/09/09 11:41:17;;;;;;;4.40;4.00;;;31.80;1.00;;;;;;5016696;28;20209;-81
2023/09/09 11:43:45;;;;;;;4.45;3.90;;;31.30;1.00;;;;;;5017108;28;20714;-81
2023/09/09 11:46:12;;;;;;;5.35;3.95;;;31.70;1.00;;;;;;5018663;28;20307;-81
2023/09/09 11:48:41;;;;;;;6.53;4.10;;;31.60;1.00;;;;;;5016851;28;20324;-81
2023/09/09 11:51:07;;;;;;;4.35;3.88;;;32.00;1.00;;;;;;5017201;28;20566;-82
2023/09/09 11:53:34;;;;;;;4.85;4.13;;;31.80;99.90;;;;;;5017041;28;20296;-81
2023/09/09 11:56:03;;;;;;;4.18;3.80;;;31.70;99.90;;;;;;5016571;28;20579;-83
2023/09/09 11:58:38;;;;;;;6.20;3.92;;;31.80;99.90;;;;;;5009028;28;20575;-83
2023/09/09 12:01:05;;;;;;;5.63;3.90;;;32.10;99.90;;;;;;5010428;28;20204;-83
2023/09/09 12:03:32;;;;;;;6.30;5.00;;;31.80;99.90;;;;;;5012007;28;20287;-82
2023/09/09 12:06:02;;;;;;;5.32;4.30;;;32.10;99.90;;;;;;5016573;28;20224;-82
2023/09/09 12:08:31;;;;;;;4.38;4.00;;;32.10;99.90;;;;;;5007203;28;20200;-81
2023/09/09 12:11:02;;;;;;;5.07;4.18;;;32.00;99.90;;;;;;5013160;28;20207;-82
2023/09/09 12:13:29;;;;;;;4.70;4.15;;;32.00;99.90;;;;;;5008074;28;20457;-82
2023/09/09 12:15:56;;;;;;;3.95;3.55;;;32.20;5.70;;;;;;5015697;28;20220;-82
2023/09/09 12:18:23;;;;;;;5.80;3.97;;;32.00;99.90;;;;;;5017015;28;20274;-81
2023/09/09 12:21:02;;;;;;;5.60;4.38;;;32.10;30.70;;;;;;5008488;28;20291;-82
2023/09/09 12:23:29;;;;;;;4.93;4.47;;;31.50;1.00;;;;;;5007179;28;20290;-82
2023/09/09 12:25:56;;;;;;;4.93;4.38;;;32.10;5.30;;;;;;5015131;28;20657;-82
2023/09/09 12:28:23;;;;;;;4.88;4.38;;;32.20;53.80;;;;;;5011403;28;20210;-82
2023/09/09 12:30:52;;;;;;;5.32;3.90;;;31.80;1.00;;;;;;5008807;28;20204;-82
2023/09/09 12:33:19;;;;;;;4.88;4.25;;;32.10;99.90;;;;;;5017415;28;20208;-82
2023/09/09 12:35:47;;;;;;;7.32;4.32;;;32.10;12.10;;;;;;5001526;28;20258;-83
2023/09/09 12:38:16;;;;;;;5.38;4.30;;;32.00;53.60;;;;;;5010026;28;20227;-82
2023/09/09 12:40:50;;;;;;;5.30;4.30;;;32.20;99.90;;;;;;5008580;28;20211;-83
2023/09/09 12:43:18;;;;;;;5.75;4.38;;;32.10;53.40;;;;;;5016260;28;20208;-83